createdAt,value
2018-08-23T00:01:37.208Z,227.13
2018-08-23T00:04:08.648Z,229.63
2018-08-23T00:06:43.386Z,230.83
2018-08-23T00:09:14.845Z,239.63
2018-08-23T00:11:48.237Z,232.30
2018-08-23T00:14:18.824Z,227.80
2018-08-23T00:16:49.088Z,221.53
2018-08-23T00:19:23.031Z,227.13
2018-08-23T00:21:53.651Z,219.50
2018-08-23T00:24:25.634Z,222.95
2018-08-23T00:26:59.335Z,216.78
2018-08-23T00:29:33.212Z,224.40
2018-08-23T00:32:07.315Z,212.17
2018-08-23T00:34:39.796Z,218.88
2018-08-23T00:37:10.782Z,217.32
2018-08-23T00:39:41.280Z,215.12
2018-08-23T00:42:12.733Z,222.78
2018-08-23T00:44:56.796Z,218.33
2018-08-23T00:47:32.378Z,226.95
2018-08-23T00:50:03.395Z,214.90
2018-08-23T00:52:50.817Z,224.07
2018-08-23T00:55:31.229Z,232.95
2018-08-23T00:58:03.379Z,225.80
2018-08-23T01:00:36.356Z,224.98
2018-08-23T01:03:07.991Z,221.82
2018-08-23T01:05:41.091Z,223.28
2018-08-23T01:08:15.078Z,229.30
2018-08-23T01:10:45.500Z,226.62
2018-08-23T01:13:16.036Z,226.40
2018-08-23T01:15:49.926Z,225.57
2018-08-23T01:18:21.385Z,228.25
2018-08-23T01:20:52.933Z,218.80
2018-08-23T01:23:23.584Z,222.52
2018-08-23T01:25:54.274Z,218.20
2018-08-23T01:28:24.591Z,215.22
2018-08-23T01:30:55.147Z,220.90
2018-08-23T01:33:25.835Z,223.45
2018-08-23T01:35:56.485Z,213.82
2018-08-23T01:38:27.142Z,214.53
2018-08-23T01:41:02.668Z,213.68
2018-08-23T01:43:33.303Z,218.27
2018-08-23T01:46:04.903Z,220.07
2018-08-23T01:48:35.391Z,219.53
2018-08-23T01:51:05.780Z,220.22
2018-08-23T01:53:40.111Z,221.95
2018-08-23T01:56:10.532Z,216.85
2018-08-23T01:58:40.947Z,217.60
2018-08-23T02:01:19.449Z,214.68
2018-08-23T02:03:50.039Z,215.77
2018-08-23T02:06:21.760Z,214.02
2018-08-23T02:08:52.583Z,218.27
2018-08-23T02:11:23.157Z,208.90
2018-08-23T02:13:53.730Z,216.42
2018-08-23T02:16:24.463Z,213.20
2018-08-23T02:18:54.952Z,215.57
2018-08-23T02:21:25.844Z,209.72
2018-08-23T02:23:56.416Z,222.05
2018-08-23T02:26:27.028Z,210.08
2018-08-23T02:28:57.634Z,209.03
2018-08-23T02:31:28.311Z,207.20
2018-08-23T02:33:58.723Z,207.85
2018-08-23T02:36:29.216Z,209.75
2018-08-23T02:39:01.722Z,210.20
2018-08-23T02:41:32.370Z,215.68
2018-08-23T02:44:02.718Z,211.50
2018-08-23T02:46:34.140Z,212.82
2018-08-23T02:49:04.555Z,215.28
2018-08-23T02:51:41.819Z,213.18
2018-08-23T02:54:14.997Z,211.37
2018-08-23T02:56:50.164Z,214.55
2018-08-23T02:59:20.534Z,209.87
2018-08-23T03:01:51.398Z,219.05
2018-08-23T03:04:29.092Z,215.68
2018-08-23T03:07:00.907Z,218.63
2018-08-23T03:09:39.653Z,219.55
2018-08-23T03:12:12.284Z,219.60
2018-08-23T03:14:42.572Z,211.03
2018-08-23T03:17:15.026Z,216.68
2018-08-23T03:20:23.426Z,213.05
2018-08-23T03:22:54.916Z,215.85
2018-08-23T03:25:26.414Z,212.17
2018-08-23T03:27:56.879Z,216.85
2018-08-23T03:30:29.704Z,209.03
2018-08-23T03:33:01.816Z,210.08
2018-08-23T03:35:32.165Z,212.75
2018-08-23T03:38:03.552Z,213.70
2018-08-23T03:40:34.162Z,211.68
2018-08-23T03:43:05.553Z,215.07
2018-08-23T03:45:35.901Z,215.95
2018-08-23T03:48:07.069Z,219.10
2018-08-23T03:50:42.494Z,217.03
2018-08-23T03:53:14.093Z,212.23
2018-08-23T03:55:44.731Z,215.05
2018-08-23T03:58:15.232Z,215.97
2018-08-23T04:00:59.486Z,216.68
2018-08-23T04:03:30.520Z,221.32
2018-08-23T04:06:15.006Z,217.80
2018-08-23T04:08:46.517Z,213.07
2018-08-23T04:11:17.098Z,220.73
2018-08-23T04:13:48.693Z,216.82
2018-08-23T04:16:25.392Z,218.17
2018-08-23T04:18:56.250Z,214.40
2018-08-23T04:21:28.470Z,220.57
2018-08-23T04:24:01.748Z,223.62
2018-08-23T04:26:41.263Z,223.28
2018-08-23T04:29:25.773Z,216.38
2018-08-23T04:31:55.981Z,228.42
2018-08-23T04:34:26.455Z,220.78
2018-08-23T04:36:56.812Z,220.63
2018-08-23T04:39:27.110Z,220.93
2018-08-23T04:42:02.484Z,209.50
2018-08-23T04:44:43.244Z,211.40
2018-08-23T04:47:13.508Z,209.98
2018-08-23T04:49:44.094Z,212.45
2018-08-23T04:52:14.280Z,215.68
2018-08-23T04:54:44.602Z,216.65
2018-08-23T04:57:14.940Z,212.25
2018-08-23T04:59:46.452Z,217.32
2018-08-23T05:02:17.093Z,217.62
2018-08-23T05:04:47.612Z,213.37
2018-08-23T05:07:17.966Z,213.20
2018-08-23T05:09:48.536Z,216.50
2018-08-23T05:12:18.880Z,223.87
2018-08-23T05:14:49.901Z,211.22
2018-08-23T05:17:20.220Z,215.03
2018-08-23T05:19:50.707Z,221.22
2018-08-23T05:22:21.056Z,220.82
2018-08-23T05:24:51.259Z,217.43
2018-08-23T05:27:21.402Z,220.07
2018-08-23T05:29:51.637Z,221.87
2018-08-23T05:32:21.989Z,222.93
2018-08-23T05:34:52.494Z,222.82
2018-08-23T05:37:23.021Z,222.22
2018-08-23T05:39:53.740Z,227.53
2018-08-23T05:42:35.660Z,223.68
2018-08-23T05:45:06.141Z,217.72
2018-08-23T05:47:36.469Z,215.45
2018-08-23T05:50:06.811Z,221.45
2018-08-23T05:52:37.202Z,220.02
2018-08-23T05:55:09.553Z,222.48
2018-08-23T05:57:40.876Z,219.97
2018-08-23T06:00:13.872Z,227.28
2018-08-23T06:02:44.233Z,229.32
2018-08-23T06:05:14.487Z,237.90
2018-08-23T06:07:44.761Z,231.10
2018-08-23T06:10:15.158Z,249.55
2018-08-23T06:12:45.604Z,241.05
2018-08-23T06:15:17.417Z,240.70
2018-08-23T06:17:48.497Z,225.10
2018-08-23T06:20:21.872Z,227.85
2018-08-23T06:22:52.649Z,231.55
2018-08-23T06:25:22.915Z,226.25
2018-08-23T06:27:54.856Z,247.95
2018-08-23T06:30:25.216Z,239.85
2018-08-23T06:32:59.731Z,229.55
2018-08-23T06:35:40.395Z,232.70
2018-08-23T06:38:11.327Z,236.00
2018-08-23T06:40:41.765Z,237.05
2018-08-23T06:43:13.866Z,239.40
2018-08-23T06:45:44.222Z,240.77
2018-08-23T06:48:14.405Z,253.92
2018-08-23T06:51:02.678Z,241.73
2018-08-23T06:53:40.669Z,244.05
2018-08-23T06:56:11.526Z,241.20
2018-08-23T06:58:41.894Z,245.15
2018-08-23T07:01:23.780Z,249.10
2018-08-23T07:04:02.219Z,229.93
2018-08-23T07:06:32.408Z,235.02
2018-08-23T07:09:03.325Z,246.00
2018-08-23T07:11:33.827Z,251.20
2018-08-23T07:14:09.727Z,237.35
2018-08-23T07:16:40.670Z,249.42
2018-08-23T07:19:26.787Z,255.18
2018-08-23T07:21:58.309Z,258.15
2018-08-23T07:24:42.442Z,265.57
2018-08-23T07:27:14.132Z,265.23
2018-08-23T07:29:48.352Z,284.48
2018-08-23T07:32:20.130Z,271.87
2018-08-23T07:35:03.996Z,277.27
2018-08-23T07:37:36.448Z,310.73
2018-08-23T07:40:13.523Z,313.73
2018-08-23T07:42:44.897Z,292.87
2018-08-23T07:45:15.906Z,272.12
2018-08-23T07:47:48.390Z,282.80
2018-08-23T07:50:22.188Z,272.93
2018-08-23T07:52:54.070Z,280.90
2018-08-23T07:55:24.375Z,314.70
2018-08-23T07:57:55.089Z,329.45
2018-08-23T08:00:34.974Z,314.48
2018-08-23T08:03:05.796Z,302.75
2018-08-23T08:05:40.670Z,305.18
2018-08-23T08:08:12.810Z,318.42
2018-08-23T08:10:45.507Z,309.00
2018-08-23T08:13:16.067Z,339.00
2018-08-23T08:15:46.252Z,318.75
2018-08-23T08:18:24.010Z,311.57
2018-08-23T08:21:03.032Z,309.83
2018-08-23T08:23:34.016Z,325.25
2018-08-23T08:26:04.474Z,330.55
2018-08-23T08:28:35.465Z,345.40
2018-08-23T08:31:05.848Z,346.70
2018-08-23T08:33:37.963Z,355.85
2018-08-23T08:36:08.625Z,349.77
2018-08-23T08:38:39.114Z,380.02
2018-08-23T08:41:09.400Z,328.35
2018-08-23T08:43:41.485Z,344.55
2018-08-23T08:46:11.748Z,351.07
2018-08-23T08:48:42.107Z,344.82
2018-08-23T08:51:18.053Z,343.00
2018-08-23T08:53:48.651Z,349.65
2018-08-23T08:56:29.278Z,349.10
2018-08-23T08:58:59.653Z,359.37
2018-08-23T09:01:30.261Z,366.30
2018-08-23T09:04:00.509Z,354.65
2018-08-23T09:06:46.112Z,363.65
2018-08-23T09:09:34.855Z,368.50
2018-08-23T09:12:09.467Z,394.23
2018-08-23T09:14:40.900Z,408.10
2018-08-23T09:17:26.772Z,403.30
2018-08-23T09:20:09.545Z,360.10
2018-08-23T09:22:42.240Z,384.45
2018-08-23T09:25:17.901Z,381.05
2018-08-23T09:27:49.690Z,356.07
2018-08-23T09:30:25.128Z,361.12
2018-08-23T09:32:56.040Z,368.75
2018-08-23T09:35:30.641Z,339.55
2018-08-23T09:38:07.994Z,374.77
2018-08-23T09:40:39.550Z,416.62
2018-08-23T09:43:11.568Z,392.92
2018-08-23T09:45:42.122Z,366.48
2018-08-23T09:48:13.077Z,371.98
2018-08-23T09:50:43.697Z,410.55
2018-08-23T09:53:19.216Z,407.60
2018-08-23T09:55:50.063Z,400.32
2018-08-23T09:58:25.891Z,381.05
2018-08-23T10:01:03.335Z,364.20
2018-08-23T10:03:39.691Z,369.57
2018-08-23T10:06:15.036Z,401.48
2018-08-23T10:08:50.341Z,390.15
2018-08-23T10:11:25.792Z,366.40
2018-08-23T10:14:01.275Z,386.15
2018-08-23T10:16:36.725Z,402.85
2018-08-23T10:19:11.385Z,430.77
2018-08-23T10:21:46.704Z,397.50
2018-08-23T10:24:22.110Z,433.00
2018-08-23T10:26:52.957Z,401.13
2018-08-23T10:29:23.372Z,432.30
2018-08-23T10:31:53.596Z,437.75
2018-08-23T10:34:23.855Z,427.20
2018-08-23T10:36:54.072Z,405.45
2018-08-23T10:39:24.505Z,446.65
2018-08-23T10:41:55.126Z,401.82
2018-08-23T10:44:25.620Z,425.00
2018-08-23T10:46:57.069Z,405.18
2018-08-23T10:49:27.841Z,406.25
2018-08-23T10:51:58.218Z,405.25
2018-08-23T10:54:28.560Z,376.75
2018-08-23T10:56:58.915Z,385.40
2018-08-23T10:59:29.696Z,398.90
2018-08-23T11:02:00.338Z,418.25
2018-08-23T11:04:31.575Z,416.10
2018-08-23T11:07:01.981Z,458.05
2018-08-23T11:09:37.162Z,431.70
2018-08-23T11:12:11.078Z,404.40
2018-08-23T11:14:41.724Z,393.65
2018-08-23T11:17:18.081Z,384.65
2018-08-23T11:19:53.493Z,380.35
2018-08-23T11:22:27.866Z,364.48
2018-08-23T11:24:58.248Z,370.40
2018-08-23T11:27:28.557Z,370.05
2018-08-23T11:29:58.858Z,360.20
2018-08-23T11:32:29.253Z,336.87
2018-08-23T11:34:59.495Z,339.98
2018-08-23T11:37:30.205Z,331.27
2018-08-23T11:40:00.434Z,332.15
2018-08-23T11:42:30.852Z,349.37
2018-08-23T11:45:01.363Z,349.77
2018-08-23T11:47:32.527Z,342.57
2018-08-23T11:50:03.100Z,357.77
2018-08-23T11:52:33.314Z,371.23
2018-08-23T11:55:04.610Z,351.60
2018-08-23T11:57:34.839Z,355.40
2018-08-23T12:00:06.199Z,404.00
2018-08-23T12:02:36.308Z,414.13
2018-08-23T12:05:10.428Z,374.27
2018-08-23T12:07:48.527Z,363.60
2018-08-23T12:10:20.196Z,354.55
2018-08-23T12:12:52.080Z,330.18
2018-08-23T12:15:35.697Z,321.87
2018-08-23T12:18:06.926Z,340.18
2018-08-23T12:20:38.920Z,321.73
2018-08-23T12:23:11.064Z,330.43
2018-08-23T12:25:41.517Z,321.05
2018-08-23T12:28:18.030Z,316.45
2018-08-23T12:30:48.765Z,328.67
2018-08-23T12:33:19.141Z,332.85
2018-08-23T12:35:49.597Z,324.48
2018-08-23T12:38:24.861Z,329.98
2018-08-23T12:40:59.987Z,328.20
2018-08-23T12:43:35.353Z,316.35
2018-08-23T12:46:06.034Z,306.52
2018-08-23T12:48:36.429Z,304.65
2018-08-23T12:51:06.745Z,321.45
2018-08-23T12:53:37.303Z,329.25
2018-08-23T12:56:07.763Z,335.30
2018-08-23T12:58:38.195Z,320.15
2018-08-23T13:01:08.492Z,328.55
2018-08-23T13:03:38.866Z,345.88
2018-08-23T13:06:09.262Z,332.75
2018-08-23T13:08:39.434Z,320.60
2018-08-23T13:11:10.140Z,319.57
2018-08-23T13:13:40.556Z,350.25
2018-08-23T13:16:11.042Z,316.57
2018-08-23T13:18:41.436Z,340.62
2018-08-23T13:21:11.773Z,327.18
2018-08-23T13:23:47.673Z,331.98
2018-08-23T13:26:17.921Z,329.57
2018-08-23T13:28:48.597Z,324.90
2018-08-23T13:31:18.898Z,357.90
2018-08-23T13:33:49.200Z,309.37
2018-08-23T13:36:19.641Z,333.65
2018-08-23T13:38:50.033Z,356.25
2018-08-23T13:41:20.921Z,351.98
2018-08-23T13:43:51.139Z,336.87
2018-08-23T13:46:21.336Z,369.20
2018-08-23T13:48:51.775Z,351.00
2018-08-23T13:51:22.405Z,345.88
2018-08-23T13:53:52.808Z,346.23
2018-08-23T13:56:23.656Z,327.93
2018-08-23T13:58:55.009Z,328.88
2018-08-23T14:01:28.688Z,316.63
2018-08-23T14:03:59.467Z,306.75
2018-08-23T14:06:30.084Z,325.95
2018-08-23T14:09:00.379Z,332.45
2018-08-23T14:11:30.843Z,319.85
2018-08-23T14:14:01.273Z,339.55
2018-08-23T14:16:31.448Z,333.20
2018-08-23T14:19:02.117Z,312.32
2018-08-23T14:21:32.345Z,329.98
2018-08-23T14:24:02.944Z,341.02
2018-08-23T14:26:33.517Z,325.75
2018-08-23T14:29:04.072Z,328.85
2018-08-23T14:31:34.268Z,323.27
2018-08-23T14:34:04.761Z,317.60
2018-08-23T14:36:35.033Z,298.05
2018-08-23T14:39:08.021Z,317.52
2018-08-23T14:41:38.762Z,320.05
2018-08-23T14:44:09.931Z,299.15
2018-08-23T14:46:46.001Z,312.10
2018-08-23T14:49:21.472Z,311.90
2018-08-23T14:51:51.912Z,294.77
2018-08-23T14:54:27.236Z,312.10
2018-08-23T14:57:02.648Z,322.20
2018-08-23T14:59:33.009Z,310.57
2018-08-23T15:02:04.364Z,319.93
2018-08-23T15:04:34.817Z,329.68
2018-08-23T15:07:06.971Z,335.88
2018-08-23T15:09:38.789Z,327.62
2018-08-23T15:12:09.543Z,318.07
2018-08-23T15:14:40.024Z,312.12
2018-08-23T15:17:12.070Z,326.65
2018-08-23T15:19:42.657Z,311.48
2018-08-23T15:25:09.454Z,323.60
2018-08-23T15:27:39.957Z,311.57
2018-08-23T15:30:11.878Z,331.52
2018-08-23T15:32:42.791Z,309.18
2018-08-23T15:35:19.144Z,344.82
2018-08-23T15:37:49.544Z,348.98
2018-08-23T15:40:24.491Z,357.27
2018-08-23T15:42:55.103Z,323.10
2018-08-23T15:45:27.309Z,344.93
2018-08-23T15:47:57.577Z,355.52
2018-08-23T15:50:27.965Z,332.83
2018-08-23T15:52:58.183Z,322.30
2018-08-23T15:55:28.666Z,322.67
2018-08-23T15:57:58.781Z,311.92
2018-08-23T16:00:33.101Z,330.02
2018-08-23T16:03:04.413Z,345.52
2018-08-23T16:05:36.927Z,319.20
2018-08-23T16:08:08.485Z,338.12
2018-08-23T16:10:40.193Z,332.12
2018-08-23T16:13:13.890Z,330.65
2018-08-23T16:15:44.632Z,321.57
2018-08-23T16:18:20.439Z,304.05
2018-08-23T16:20:54.587Z,341.02
2018-08-23T16:23:25.918Z,327.13
2018-08-23T16:26:00.965Z,318.48
2018-08-23T16:28:35.309Z,332.85
2018-08-23T16:31:06.977Z,333.43
2018-08-23T16:33:37.760Z,345.42
2018-08-23T16:36:11.574Z,314.38
2018-08-23T16:38:42.297Z,298.35
2018-08-23T16:41:12.649Z,324.73
2018-08-23T16:43:43.093Z,315.12
2018-08-23T16:46:13.336Z,341.23
2018-08-23T16:48:44.953Z,311.02
2018-08-23T16:51:19.029Z,331.00
2018-08-23T16:53:50.475Z,347.55
2018-08-23T16:56:25.381Z,313.37
2018-08-23T16:58:56.283Z,334.37
2018-08-23T17:01:26.852Z,316.88
2018-08-23T17:03:58.738Z,302.85
2018-08-23T17:06:30.181Z,324.02
2018-08-23T17:09:00.875Z,310.02
2018-08-23T17:11:31.493Z,291.35
2018-08-23T20:13:11.745Z,280.62
2018-08-23T20:15:42.417Z,256.55
2018-08-23T20:18:13.054Z,268.88
2018-08-23T20:23:54.996Z,246.85
2018-08-23T20:26:29.664Z,280.07
2018-08-23T20:29:01.097Z,257.67
2018-08-23T20:31:31.691Z,247.50
2018-08-23T20:34:01.957Z,249.65
2018-08-23T20:36:33.286Z,256.73
2018-08-23T20:39:03.907Z,251.27
2018-08-23T20:41:34.203Z,256.13
2018-08-23T20:44:04.747Z,250.43
2018-08-23T20:46:35.125Z,254.57
2018-08-23T20:49:05.540Z,246.22
2018-08-23T20:51:36.080Z,255.40
2018-08-23T20:54:07.145Z,243.63
2018-08-23T20:56:37.829Z,247.55
2018-08-23T20:59:08.320Z,248.50
2018-08-23T21:01:41.068Z,255.57
2018-08-23T21:04:11.791Z,250.22
2018-08-23T21:06:42.091Z,266.57
2018-08-23T21:09:13.679Z,250.68
2018-08-23T21:11:44.167Z,249.05
2018-08-23T21:14:15.055Z,260.35
2018-08-23T21:16:46.013Z,252.15
2018-08-23T21:19:16.255Z,254.07
2018-08-23T21:21:46.724Z,248.13
2018-08-23T21:24:17.159Z,262.02
2018-08-23T21:26:47.777Z,247.78
2018-08-23T21:29:18.222Z,255.20
2018-08-23T21:31:51.312Z,271.60
2018-08-23T21:34:22.864Z,245.55
2018-08-23T21:36:57.776Z,248.55
2018-08-23T21:39:34.758Z,256.87
2018-08-23T21:42:07.363Z,253.58
2018-08-23T21:44:38.420Z,268.15
2018-08-23T21:47:09.059Z,249.22
2018-08-23T21:49:39.564Z,268.70
2018-08-23T21:52:09.856Z,270.30
2018-08-23T21:54:40.940Z,264.75
2018-08-23T21:57:11.402Z,275.87
2018-08-23T21:59:41.669Z,268.93
2018-08-23T22:02:16.861Z,268.82
2018-08-23T22:04:53.855Z,266.98
2018-08-23T22:07:29.669Z,284.37
2018-08-23T22:10:01.929Z,256.05
2018-08-23T22:12:32.294Z,257.60
2018-08-23T22:15:05.655Z,262.27
2018-08-23T22:17:36.012Z,256.50
2018-08-23T22:20:06.201Z,255.05
2018-08-23T22:22:36.736Z,252.93
2018-08-23T22:25:07.572Z,242.65
2018-08-23T22:27:37.816Z,255.72
2018-08-23T22:30:08.109Z,254.18
2018-08-23T22:32:38.375Z,281.30
2018-08-23T22:35:11.297Z,274.15
2018-08-23T22:37:41.818Z,269.93
2018-08-23T22:40:12.284Z,277.57
2018-08-23T22:42:42.856Z,260.02
2018-08-23T22:45:13.121Z,273.85
2018-08-23T22:47:43.455Z,266.82
2018-08-23T22:50:15.491Z,266.20
2018-08-23T22:52:46.502Z,260.75
2018-08-23T22:55:23.019Z,266.35
2018-08-23T22:57:54.886Z,267.20
2018-08-23T23:00:30.571Z,271.55
2018-08-23T23:03:01.156Z,280.15
2018-08-23T23:05:33.174Z,277.65
2018-08-23T23:08:10.311Z,283.43
2018-08-23T23:10:41.133Z,256.77
2018-08-23T23:13:13.296Z,258.23
2018-08-23T23:15:43.692Z,271.25
2018-08-23T23:18:13.925Z,264.32
2018-08-23T23:20:44.171Z,250.72
2018-08-23T23:23:14.462Z,259.52
2018-08-23T23:25:44.840Z,250.97
2018-08-23T23:28:15.282Z,280.10
2018-08-23T23:30:46.016Z,265.80
2018-08-23T23:33:16.202Z,255.67
2018-08-23T23:35:47.455Z,251.67
2018-08-23T23:38:17.972Z,257.18
2018-08-23T23:40:48.245Z,254.45
2018-08-23T23:43:18.879Z,267.95
2018-08-23T23:45:49.316Z,261.00
2018-08-23T23:48:19.563Z,242.65
2018-08-23T23:50:49.918Z,258.13
2018-08-23T23:53:20.680Z,259.00
2018-08-23T23:55:50.853Z,270.00
2018-08-23T23:58:21.457Z,240.28
